createdAt,value
2017-09-02T00:00:12.646Z,17.85
2017-09-02T00:00:38.754Z,17.83
2017-09-02T00:01:04.860Z,17.85
2017-09-02T00:01:30.987Z,17.86
2017-09-02T00:01:57.101Z,17.86
2017-09-02T00:02:23.221Z,17.85
2017-09-02T00:02:49.323Z,17.83
2017-09-02T00:03:15.429Z,17.86
2017-09-02T00:03:41.542Z,17.82
2017-09-02T00:04:07.654Z,17.78
2017-09-02T00:04:33.758Z,17.83
2017-09-02T00:04:59.869Z,17.82
2017-09-02T00:05:25.970Z,17.86
2017-09-02T00:05:52.079Z,17.79
2017-09-02T00:06:18.191Z,17.86
2017-09-02T00:06:44.303Z,17.8
2017-09-02T00:07:10.428Z,17.8
2017-09-02T00:07:36.540Z,17.78
2017-09-02T00:08:02.642Z,17.86
2017-09-02T00:08:28.758Z,17.78
2017-09-02T00:08:54.863Z,17.82
2017-09-02T00:09:20.966Z,17.83
2017-09-02T00:09:47.075Z,17.78
2017-09-02T00:10:13.186Z,17.78
2017-09-02T00:10:39.298Z,17.83
2017-09-02T00:11:05.404Z,17.83
2017-09-02T00:11:31.516Z,17.86
2017-09-02T00:11:57.647Z,17.83
2017-09-02T00:12:23.752Z,17.83
2017-09-02T00:12:49.856Z,17.82
2017-09-02T00:13:15.970Z,17.89
2017-09-02T00:13:42.079Z,17.8
2017-09-02T00:14:08.183Z,17.86
2017-09-02T00:14:34.297Z,17.86
2017-09-02T00:15:00.400Z,17.79
2017-09-02T00:15:26.510Z,17.82
2017-09-02T00:15:52.637Z,17.87
2017-09-02T00:16:18.755Z,17.85
2017-09-02T00:16:44.863Z,17.82
2017-09-02T00:17:10.968Z,17.89
2017-09-02T00:17:37.073Z,17.87
2017-09-02T00:18:03.184Z,17.85
2017-09-02T00:18:29.293Z,17.9
2017-09-02T00:18:55.399Z,17.86
2017-09-02T00:19:21.509Z,17.89
2017-09-02T00:19:47.618Z,17.86
2017-09-02T00:20:13.722Z,17.78
2017-09-02T00:20:39.835Z,17.82
2017-09-02T00:21:05.938Z,17.87
2017-09-02T00:21:32.053Z,17.87
2017-09-02T00:21:58.162Z,17.86
2017-09-02T00:22:24.270Z,17.83
2017-09-02T00:22:50.381Z,17.86
2017-09-02T00:23:16.478Z,17.86
2017-09-02T00:23:42.585Z,17.82
2017-09-02T00:24:08.695Z,17.86
2017-09-02T00:24:34.800Z,17.8
2017-09-02T00:25:00.912Z,17.79
2017-09-02T00:25:27.024Z,17.79
2017-09-02T00:25:53.136Z,17.72
2017-09-02T00:26:19.241Z,17.83
2017-09-02T00:26:45.347Z,17.83
2017-09-02T00:27:11.461Z,17.78
2017-09-02T00:27:37.572Z,17.78
2017-09-02T00:28:03.678Z,17.8
2017-09-02T00:28:29.787Z,17.83
2017-09-02T00:28:55.891Z,17.78
2017-09-02T00:29:21.999Z,17.8
2017-09-02T00:29:48.114Z,17.76
2017-09-02T00:30:14.224Z,17.74
2017-09-02T00:30:40.332Z,17.8
2017-09-02T00:31:06.440Z,17.72
2017-09-02T00:31:32.546Z,17.89
2017-09-02T00:31:58.660Z,17.78
2017-09-02T00:32:24.765Z,17.86
2017-09-02T00:32:50.871Z,17.82
2017-09-02T00:33:16.986Z,17.85
2017-09-02T00:33:43.089Z,17.87
2017-09-02T00:34:09.200Z,17.78
2017-09-02T00:34:35.312Z,17.85
2017-09-02T00:35:01.432Z,17.82
2017-09-02T00:35:27.561Z,17.82
2017-09-02T00:35:53.665Z,17.79
2017-09-02T00:36:19.772Z,17.82
2017-09-02T00:36:45.882Z,17.8
2017-09-02T00:37:11.991Z,17.79
2017-09-02T00:37:38.100Z,17.79
2017-09-02T00:38:04.225Z,17.82
2017-09-02T00:38:30.337Z,17.78
2017-09-02T00:38:56.444Z,17.79
2017-09-02T00:39:22.558Z,17.79
2017-09-02T00:39:48.663Z,17.78
2017-09-02T00:40:14.769Z,17.83
2017-09-02T00:40:40.892Z,17.87
2017-09-02T00:41:07.006Z,17.79
2017-09-02T00:41:33.119Z,17.82
2017-09-02T00:41:59.232Z,17.74
2017-09-02T00:42:25.359Z,17.83
2017-09-02T00:42:51.458Z,17.85
2017-09-02T00:43:17.587Z,17.85
2017-09-02T00:43:43.695Z,17.74
2017-09-02T00:44:09.805Z,17.78
2017-09-02T00:44:35.913Z,17.82
2017-09-02T00:45:02.023Z,17.74
2017-09-02T00:45:28.131Z,17.8
2017-09-02T00:45:54.239Z,17.78
2017-09-02T00:46:20.346Z,17.85
2017-09-02T00:46:46.454Z,17.78
2017-09-02T00:47:12.566Z,17.8
2017-09-02T00:47:38.679Z,17.82
2017-09-02T00:48:04.783Z,17.76
2017-09-02T00:48:30.890Z,17.82
2017-09-02T00:48:56.994Z,17.8
2017-09-02T00:49:23.110Z,17.8
2017-09-02T00:49:49.214Z,17.78
2017-09-02T00:50:15.321Z,17.83
2017-09-02T00:50:41.429Z,17.8
2017-09-02T00:51:07.538Z,17.82
2017-09-02T00:51:33.648Z,17.76
2017-09-02T00:51:59.756Z,17.82
2017-09-02T00:52:25.868Z,17.8
2017-09-02T00:52:51.973Z,17.83
2017-09-02T00:53:18.092Z,17.78
2017-09-02T00:53:44.196Z,17.78
2017-09-02T00:54:10.303Z,17.78
2017-09-02T00:54:36.413Z,17.83
2017-09-02T00:55:02.517Z,17.86
2017-09-02T00:55:28.629Z,17.83
2017-09-02T00:55:54.751Z,17.82
2017-09-02T00:56:20.879Z,17.9
2017-09-02T00:56:46.996Z,17.85
2017-09-02T00:57:13.097Z,17.87
2017-09-02T00:57:39.211Z,17.85
2017-09-02T00:58:05.315Z,17.87
2017-09-02T00:58:31.426Z,17.87
2017-09-02T00:58:57.540Z,17.85
2017-09-02T00:59:23.643Z,17.89
2017-09-02T00:59:49.768Z,17.92
2017-09-02T01:00:15.878Z,17.95
2017-09-02T01:00:41.992Z,17.9
2017-09-02T01:01:08.098Z,17.97
2017-09-02T01:01:34.207Z,17.97
2017-09-02T01:02:00.311Z,17.94
2017-09-02T01:02:26.421Z,17.89
2017-09-02T01:02:52.531Z,17.86
2017-09-02T01:03:18.644Z,17.83
2017-09-02T01:03:44.747Z,17.83
2017-09-02T01:04:10.860Z,17.78
2017-09-02T01:04:36.968Z,17.78
2017-09-02T01:05:03.070Z,17.74
2017-09-02T01:05:29.185Z,17.71
2017-09-02T01:05:55.286Z,17.85
2017-09-02T01:06:21.417Z,17.8
2017-09-02T01:06:47.521Z,17.78
2017-09-02T01:07:13.634Z,17.86
2017-09-02T01:07:39.746Z,17.82
2017-09-02T01:08:05.850Z,17.78
2017-09-02T01:08:31.956Z,17.87
2017-09-02T01:08:58.070Z,17.89
2017-09-02T01:09:24.181Z,17.94
2017-09-02T01:09:50.286Z,17.92
2017-09-02T01:10:16.400Z,17.92
2017-09-02T01:10:42.504Z,17.92
2017-09-02T01:11:08.612Z,17.9
2017-09-02T01:11:34.718Z,17.86
2017-09-02T01:12:00.831Z,17.87
2017-09-02T01:12:26.938Z,17.85
2017-09-02T01:12:53.051Z,17.86
2017-09-02T01:13:19.158Z,17.86
2017-09-02T01:13:45.285Z,17.87
2017-09-02T01:14:11.393Z,17.82
2017-09-02T01:14:37.505Z,17.8
2017-09-02T01:15:03.613Z,17.8
2017-09-02T01:15:29.717Z,17.9
2017-09-02T01:15:55.825Z,17.79
2017-09-02T01:16:21.928Z,17.8
2017-09-02T01:16:48.043Z,17.85
2017-09-02T01:17:14.146Z,17.78
2017-09-02T01:17:40.268Z,17.8
2017-09-02T01:18:06.380Z,17.79
2017-09-02T01:18:32.482Z,17.83
2017-09-02T01:18:58.593Z,17.79
2017-09-02T01:19:24.700Z,17.79
2017-09-02T01:19:50.813Z,17.79
2017-09-02T01:20:16.916Z,17.83
2017-09-02T01:20:43.032Z,17.82
2017-09-02T01:21:09.136Z,17.79
2017-09-02T01:21:35.258Z,17.86
2017-09-02T01:22:01.358Z,17.78
2017-09-02T01:22:27.464Z,17.87
2017-09-02T01:22:53.578Z,17.82
2017-09-02T01:23:19.689Z,17.83
2017-09-02T01:23:45.793Z,17.79
2017-09-02T01:24:11.924Z,17.8
2017-09-02T01:24:38.025Z,17.76
2017-09-02T01:25:04.133Z,17.83
2017-09-02T01:25:30.247Z,17.85
2017-09-02T01:25:56.368Z,17.72
2017-09-02T01:26:22.482Z,17.92
2017-09-02T01:26:48.593Z,17.85
2017-09-02T01:27:14.697Z,17.85
2017-09-02T01:27:40.804Z,17.83
2017-09-02T01:28:06.915Z,17.87
2017-09-02T01:28:33.029Z,17.74
2017-09-02T01:28:59.137Z,17.74
2017-09-02T01:29:25.241Z,17.7
2017-09-02T01:29:51.354Z,17.78
2017-09-02T01:30:17.478Z,17.85
2017-09-02T01:30:43.588Z,17.8
2017-09-02T01:31:09.690Z,17.78
2017-09-02T01:31:35.802Z,17.76
2017-09-02T01:32:01.913Z,17.8
2017-09-02T01:32:28.021Z,17.74
2017-09-02T01:32:54.132Z,17.78
2017-09-02T01:33:20.236Z,17.82
2017-09-02T01:33:46.343Z,17.76
2017-09-02T01:34:12.452Z,17.82
2017-09-02T01:34:38.565Z,17.79
2017-09-02T01:35:04.667Z,17.74
2017-09-02T01:35:30.782Z,17.78
2017-09-02T01:35:56.893Z,17.78
2017-09-02T01:36:22.999Z,17.78
2017-09-02T01:36:49.110Z,17.82
2017-09-02T01:37:15.207Z,17.8
2017-09-02T01:37:41.320Z,17.76
2017-09-02T01:38:07.432Z,17.82
2017-09-02T01:38:33.559Z,17.76
2017-09-02T01:38:59.661Z,17.83
2017-09-02T01:39:25.778Z,17.72
2017-09-02T01:39:51.886Z,17.85
2017-09-02T01:40:17.995Z,17.79
2017-09-02T01:40:44.121Z,17.79
2017-09-02T01:41:10.237Z,17.76
2017-09-02T01:41:36.350Z,17.82
2017-09-02T01:42:02.462Z,17.85
2017-09-02T01:42:28.569Z,17.82
2017-09-02T01:42:54.675Z,17.74
2017-09-02T01:43:20.788Z,17.82
2017-09-02T01:43:46.894Z,17.85
2017-09-02T01:44:13.000Z,17.83
2017-09-02T01:44:39.110Z,17.85
2017-09-02T01:45:05.217Z,17.85
2017-09-02T01:45:31.331Z,17.79
2017-09-02T01:45:57.433Z,17.82
2017-09-02T01:46:23.544Z,17.72
2017-09-02T01:46:49.651Z,17.78
2017-09-02T01:47:15.787Z,17.78
2017-09-02T01:47:41.894Z,17.78
2017-09-02T01:48:07.999Z,17.8
2017-09-02T01:48:34.120Z,17.86
2017-09-02T01:49:00.231Z,17.72
2017-09-02T01:49:26.344Z,17.79
2017-09-02T01:49:52.473Z,17.78
2017-09-02T01:50:18.577Z,17.8
2017-09-02T01:50:44.729Z,17.78
2017-09-02T01:51:10.837Z,17.83
2017-09-02T01:51:36.942Z,17.85
2017-09-02T01:52:03.052Z,17.8
2017-09-02T01:52:29.167Z,17.78
2017-09-02T01:52:55.278Z,17.79
2017-09-02T01:53:21.396Z,17.79
2017-09-02T01:53:47.517Z,17.78
2017-09-02T01:54:13.674Z,17.74
2017-09-02T01:54:39.786Z,17.78
2017-09-02T01:55:05.890Z,17.64
2017-09-02T01:55:32.004Z,17.65
2017-09-02T01:55:58.109Z,17.76
2017-09-02T01:56:24.216Z,17.72
2017-09-02T01:56:50.325Z,17.76
2017-09-02T01:57:16.432Z,17.6
2017-09-02T01:57:42.546Z,17.68
2017-09-02T01:58:08.697Z,17.67
2017-09-02T01:58:34.810Z,17.56
2017-09-02T01:59:00.921Z,17.65
2017-09-02T01:59:27.024Z,17.65
2017-09-02T01:59:53.130Z,17.63
2017-09-02T02:00:19.238Z,17.7
2017-09-02T02:00:45.351Z,17.71
2017-09-02T02:01:11.448Z,17.79
2017-09-02T02:01:37.555Z,17.68
2017-09-02T02:02:03.726Z,17.79
2017-09-02T02:02:30.027Z,17.72
2017-09-02T02:02:56.512Z,17.64
2017-09-02T02:03:22.729Z,17.7
2017-09-02T02:03:48.838Z,17.59
2017-09-02T02:04:14.946Z,17.63
2017-09-02T02:04:41.058Z,17.63
2017-09-02T02:05:07.166Z,17.64
2017-09-02T02:05:33.289Z,17.63
2017-09-02T02:05:59.399Z,17.65
2017-09-02T02:06:25.507Z,17.7
2017-09-02T02:06:51.637Z,17.7
2017-09-02T02:07:17.741Z,17.76
2017-09-02T02:07:43.848Z,17.68
2017-09-02T02:08:10.232Z,17.57
2017-09-02T02:08:36.490Z,17.68
2017-09-02T02:09:03.042Z,17.65
2017-09-02T02:09:29.387Z,17.63
2017-09-02T02:09:55.544Z,17.57
2017-09-02T02:10:21.753Z,17.63
2017-09-02T02:10:47.812Z,17.63
2017-09-02T02:11:13.918Z,17.65
2017-09-02T02:11:40.034Z,17.64
2017-09-02T02:12:06.137Z,17.68
2017-09-02T02:12:32.248Z,17.59
2017-09-02T02:12:58.353Z,17.68
2017-09-02T02:13:24.467Z,17.59
2017-09-02T02:13:50.570Z,17.6
2017-09-02T02:14:16.700Z,17.67
2017-09-02T02:14:42.816Z,17.63
2017-09-02T02:15:08.922Z,17.63
2017-09-02T02:15:35.029Z,17.71
2017-09-02T02:16:01.143Z,17.7
2017-09-02T02:16:27.253Z,17.72
2017-09-02T02:16:53.375Z,17.78
2017-09-02T02:17:19.486Z,17.67
2017-09-02T02:17:45.587Z,17.63
2017-09-02T02:18:11.700Z,17.68
2017-09-02T02:18:37.811Z,17.63
2017-09-02T02:19:03.925Z,17.68
2017-09-02T02:19:30.036Z,17.63
2017-09-02T02:19:56.149Z,17.63
2017-09-02T02:20:22.254Z,17.74
2017-09-02T02:20:48.363Z,17.63
2017-09-02T02:21:14.470Z,17.63
2017-09-02T02:21:40.575Z,17.63
2017-09-02T02:22:06.692Z,17.63
2017-09-02T02:22:32.792Z,17.65
2017-09-02T02:22:58.906Z,17.67
2017-09-02T02:23:25.016Z,17.64
2017-09-02T02:23:51.128Z,17.65
2017-09-02T02:24:17.233Z,17.7
2017-09-02T02:24:43.346Z,17.64
2017-09-02T02:25:09.446Z,17.7
2017-09-02T02:25:35.554Z,17.72
2017-09-02T02:26:01.664Z,17.78
2017-09-02T02:26:27.775Z,17.82
2017-09-02T02:26:53.882Z,17.72
2017-09-02T02:27:19.995Z,17.74
2017-09-02T02:27:46.120Z,17.71
2017-09-02T02:28:12.229Z,17.67
2017-09-02T02:28:38.341Z,17.74
2017-09-02T02:29:04.447Z,17.68
2017-09-02T02:29:30.575Z,17.65
2017-09-02T02:29:56.668Z,17.74
2017-09-02T02:30:22.774Z,17.72
2017-09-02T02:30:48.890Z,17.7
2017-09-02T02:31:15.001Z,17.57
2017-09-02T02:31:41.106Z,17.63
2017-09-02T02:32:07.237Z,17.71
2017-09-02T02:32:33.344Z,17.7
2017-09-02T02:32:59.449Z,17.59
2017-09-02T02:33:25.563Z,17.63
2017-09-02T02:33:51.677Z,17.59
2017-09-02T02:34:17.802Z,17.63
2017-09-02T02:34:43.916Z,17.63
2017-09-02T02:35:10.018Z,17.57
2017-09-02T02:35:36.126Z,17.65
2017-09-02T02:36:02.240Z,17.57
2017-09-02T02:36:28.345Z,17.67
2017-09-02T02:36:54.459Z,17.72
2017-09-02T02:37:20.570Z,17.7
2017-09-02T02:37:46.677Z,17.65
2017-09-02T02:38:12.803Z,17.63
2017-09-02T02:38:38.906Z,17.67
2017-09-02T02:39:05.011Z,17.64
2017-09-02T02:39:31.127Z,17.65
2017-09-02T02:39:57.237Z,17.64
2017-09-02T02:40:23.341Z,17.68
2017-09-02T02:40:49.455Z,17.67
2017-09-02T02:41:15.559Z,17.63
2017-09-02T02:41:41.663Z,17.49
2017-09-02T02:42:07.789Z,17.54
2017-09-02T02:42:33.894Z,17.64
2017-09-02T02:43:00.013Z,17.6
2017-09-02T02:43:26.126Z,17.65
2017-09-02T02:43:52.231Z,17.67
2017-09-02T02:44:18.343Z,17.63
2017-09-02T02:44:44.452Z,17.6
2017-09-02T02:45:10.556Z,17.67
2017-09-02T02:45:36.663Z,17.6
2017-09-02T02:46:02.770Z,17.63
2017-09-02T02:46:28.883Z,17.63
2017-09-02T02:46:54.986Z,17.68
2017-09-02T02:47:21.094Z,17.74
2017-09-02T02:47:47.205Z,17.65
2017-09-02T02:48:13.308Z,17.57
2017-09-02T02:48:39.427Z,17.65
2017-09-02T02:49:05.536Z,17.6
2017-09-02T02:49:31.639Z,17.65
2017-09-02T02:49:57.758Z,17.57
2017-09-02T02:50:23.864Z,17.57
2017-09-02T02:50:49.967Z,17.59
2017-09-02T02:51:16.101Z,17.7
2017-09-02T02:51:42.225Z,17.57
2017-09-02T02:52:08.337Z,17.57
2017-09-02T02:52:34.460Z,17.6
2017-09-02T02:53:00.565Z,17.67
2017-09-02T02:53:26.679Z,17.67
2017-09-02T02:53:52.789Z,17.71
2017-09-02T02:54:18.896Z,17.6
2017-09-02T02:54:45.001Z,17.65
2017-09-02T02:55:11.136Z,17.68
2017-09-02T02:55:37.240Z,17.63
2017-09-02T02:56:03.355Z,17.57
2017-09-02T02:56:29.459Z,17.64
2017-09-02T02:56:55.571Z,17.63
2017-09-02T02:57:21.677Z,17.63
2017-09-02T02:57:47.806Z,17.65
2017-09-02T02:58:13.913Z,17.65
2017-09-02T02:58:40.026Z,17.57
2017-09-02T02:59:06.136Z,17.65
2017-09-02T02:59:32.244Z,17.65
2017-09-02T02:59:58.350Z,17.65
2017-09-02T03:00:24.459Z,17.68
2017-09-02T03:00:50.573Z,17.6
2017-09-02T03:01:16.681Z,17.65
2017-09-02T03:01:42.785Z,17.63
2017-09-02T03:02:08.898Z,17.64
2017-09-02T03:02:35.014Z,17.63
2017-09-02T03:03:01.122Z,17.68
2017-09-02T03:03:27.227Z,17.6
2017-09-02T03:03:53.341Z,17.65
2017-09-02T03:04:19.454Z,17.57
2017-09-02T03:04:45.557Z,17.48
2017-09-02T03:05:11.673Z,17.6
2017-09-02T03:05:37.783Z,17.51
2017-09-02T03:06:03.894Z,17.48
2017-09-02T03:06:29.997Z,17.64
2017-09-02T03:06:56.104Z,17.49
2017-09-02T03:07:22.227Z,17.51
2017-09-02T03:07:48.332Z,17.46
2017-09-02T03:08:14.472Z,17.49
2017-09-02T03:08:40.584Z,17.52
2017-09-02T03:09:06.687Z,17.52
2017-09-02T03:09:32.800Z,17.59
2017-09-02T03:09:58.907Z,17.44
2017-09-02T03:10:25.013Z,17.6
2017-09-02T03:10:51.129Z,17.65
2017-09-02T03:11:17.231Z,17.64
2017-09-02T03:11:43.347Z,17.57
2017-09-02T03:12:09.446Z,17.56
2017-09-02T03:12:35.551Z,17.57
2017-09-02T03:13:01.686Z,17.57
2017-09-02T03:13:27.769Z,17.64
2017-09-02T03:13:53.883Z,17.63
2017-09-02T03:14:19.992Z,17.63
2017-09-02T03:14:46.111Z,17.56
2017-09-02T03:15:12.241Z,17.57
2017-09-02T03:15:38.348Z,17.57
2017-09-02T03:16:04.461Z,17.49
2017-09-02T03:16:30.565Z,17.46
2017-09-02T03:16:56.675Z,17.48
2017-09-02T03:17:22.790Z,17.46
2017-09-02T03:17:48.894Z,17.49
2017-09-02T03:18:15.009Z,17.38
2017-09-02T03:18:41.114Z,17.48
2017-09-02T03:19:07.222Z,17.46
2017-09-02T03:19:33.336Z,17.51
2017-09-02T03:19:59.449Z,17.41
2017-09-02T03:20:25.555Z,17.51
2017-09-02T03:20:51.658Z,17.44
2017-09-02T03:21:17.773Z,17.48
2017-09-02T03:21:43.884Z,17.46
2017-09-02T03:22:09.990Z,17.54
2017-09-02T03:22:36.106Z,17.38
2017-09-02T03:23:02.210Z,17.48
2017-09-02T03:23:28.324Z,17.45
2017-09-02T03:23:54.427Z,17.45
2017-09-02T03:24:20.556Z,17.45
2017-09-02T03:24:46.665Z,17.42
2017-09-02T03:25:12.792Z,17.52
2017-09-02T03:25:38.902Z,17.49
2017-09-02T03:26:05.009Z,17.49
2017-09-02T03:26:31.122Z,17.48
2017-09-02T03:26:57.223Z,17.51
2017-09-02T03:27:23.329Z,17.48
2017-09-02T03:27:49.444Z,17.51
2017-09-02T03:28:15.554Z,17.46
2017-09-02T03:28:41.660Z,17.52
2017-09-02T03:29:07.772Z,17.48
2017-09-02T03:29:33.884Z,17.48
2017-09-02T03:29:59.989Z,17.44
2017-09-02T03:30:26.100Z,17.54
2017-09-02T03:30:52.201Z,17.49
2017-09-02T03:31:18.313Z,17.46
2017-09-02T03:31:44.422Z,17.48
2017-09-02T03:32:10.528Z,17.41
2017-09-02T03:32:36.640Z,17.48
2017-09-02T03:33:02.742Z,17.48
2017-09-02T03:33:28.856Z,17.49
2017-09-02T03:33:54.966Z,17.45
2017-09-02T03:34:21.076Z,17.44
2017-09-02T03:34:47.184Z,17.44
2017-09-02T03:35:13.294Z,17.46
2017-09-02T03:35:39.407Z,17.44
2017-09-02T03:36:05.511Z,17.45
2017-09-02T03:36:31.626Z,17.46
2017-09-02T03:36:57.730Z,17.49
2017-09-02T03:37:23.843Z,17.51
2017-09-02T03:37:49.948Z,17.52
2017-09-02T03:38:16.056Z,17.44
2017-09-02T03:38:42.171Z,17.49
2017-09-02T03:39:08.280Z,17.51
2017-09-02T03:39:34.386Z,17.48
2017-09-02T03:40:00.496Z,17.45
2017-09-02T03:40:26.607Z,17.45
2017-09-02T03:40:52.710Z,17.39
2017-09-02T03:41:18.839Z,17.46
2017-09-02T03:41:44.946Z,17.48
2017-09-02T03:42:11.055Z,17.48
2017-09-02T03:42:37.163Z,17.45
2017-09-02T03:43:03.311Z,17.45
2017-09-02T03:43:29.417Z,17.45
2017-09-02T03:43:55.531Z,17.46
2017-09-02T03:44:21.637Z,17.44
2017-09-02T03:44:47.748Z,17.41
2017-09-02T03:45:13.858Z,17.44
2017-09-02T03:45:39.968Z,17.38
2017-09-02T03:46:06.073Z,17.49
2017-09-02T03:46:32.185Z,17.42
2017-09-02T03:46:58.288Z,17.36
2017-09-02T03:47:24.402Z,17.45
2017-09-02T03:47:50.514Z,17.42
2017-09-02T03:48:16.641Z,17.38
2017-09-02T03:48:42.750Z,17.39
2017-09-02T03:49:08.857Z,17.33
2017-09-02T03:49:34.974Z,17.41
2017-09-02T03:50:01.078Z,17.42
2017-09-02T03:50:27.193Z,17.34
2017-09-02T03:50:53.301Z,17.38
2017-09-02T03:51:19.426Z,17.38
2017-09-02T03:51:45.528Z,17.31
2017-09-02T03:52:11.635Z,17.44
2017-09-02T03:52:37.740Z,17.42
2017-09-02T03:53:03.857Z,17.48
2017-09-02T03:53:29.964Z,17.39
2017-09-02T03:53:56.073Z,17.46
2017-09-02T03:54:22.186Z,17.51
2017-09-02T03:54:48.289Z,17.38
2017-09-02T03:55:14.404Z,17.36
2017-09-02T03:55:40.515Z,17.36
2017-09-02T03:56:06.627Z,17.39
2017-09-02T03:56:32.735Z,17.42
2017-09-02T03:56:58.840Z,17.36
2017-09-02T03:57:24.947Z,17.36
2017-09-02T03:57:51.073Z,17.36
2017-09-02T03:58:17.153Z,17.34
2017-09-02T03:58:43.262Z,17.34
2017-09-02T03:59:09.367Z,17.36
2017-09-02T03:59:35.476Z,17.42
2017-09-02T04:00:01.597Z,17.33
2017-09-02T04:00:27.700Z,17.36
2017-09-02T04:00:53.806Z,17.42
2017-09-02T04:01:19.916Z,17.41
2017-09-02T04:01:46.031Z,17.44
2017-09-02T04:02:12.133Z,17.42
2017-09-02T04:02:38.240Z,17.41
2017-09-02T04:03:04.353Z,17.39
2017-09-02T04:03:30.484Z,17.38
2017-09-02T04:03:56.584Z,17.31
2017-09-02T04:04:22.693Z,17.42
2017-09-02T04:04:48.797Z,17.36
2017-09-02T04:05:14.910Z,17.39
2017-09-02T04:05:41.022Z,17.33
2017-09-02T04:06:07.148Z,17.39
2017-09-02T04:06:33.276Z,17.38
2017-09-02T04:06:59.387Z,17.42
2017-09-02T04:07:25.499Z,17.39
2017-09-02T04:07:51.609Z,17.46
2017-09-02T04:08:17.716Z,17.41
2017-09-02T04:08:43.826Z,17.41
2017-09-02T04:09:09.947Z,17.34
2017-09-02T04:09:36.064Z,17.38
2017-09-02T04:10:02.174Z,17.36
2017-09-02T04:10:28.277Z,17.29
2017-09-02T04:10:54.392Z,17.3
2017-09-02T04:11:20.503Z,17.38
2017-09-02T04:11:46.627Z,17.38
2017-09-02T04:12:12.741Z,17.38
2017-09-02T04:12:38.849Z,17.38
2017-09-02T04:13:04.959Z,17.34
2017-09-02T04:13:31.062Z,17.33
2017-09-02T04:13:57.174Z,17.33
2017-09-02T04:14:23.278Z,17.33
2017-09-02T04:14:49.391Z,17.24
2017-09-02T04:15:15.494Z,17.31
2017-09-02T04:15:41.608Z,17.38
2017-09-02T04:16:07.716Z,17.31
2017-09-02T04:16:33.820Z,17.36
2017-09-02T04:16:59.935Z,17.38
2017-09-02T04:17:26.065Z,17.34
2017-09-02T04:17:52.167Z,17.38
2017-09-02T04:18:18.275Z,17.33
2017-09-02T04:18:44.386Z,17.38
2017-09-02T04:19:10.491Z,17.31
2017-09-02T04:19:36.604Z,17.27
2017-09-02T04:20:02.714Z,17.23
2017-09-02T04:20:28.820Z,17.19
2017-09-02T04:20:54.924Z,17.22
2017-09-02T04:21:21.038Z,17.24
2017-09-02T04:21:47.149Z,17.16
2017-09-02T04:22:13.256Z,17.16
2017-09-02T04:22:39.366Z,17.23
2017-09-02T04:23:05.469Z,17.29
2017-09-02T04:23:31.576Z,17.2
2017-09-02T04:23:57.680Z,17.23
2017-09-02T04:24:23.789Z,17.19
2017-09-02T04:24:49.925Z,17.14
2017-09-02T04:25:16.043Z,17.27
2017-09-02T04:25:42.156Z,17.23
2017-09-02T04:26:08.264Z,17.24
2017-09-02T04:26:34.371Z,17.26
2017-09-02T04:27:00.476Z,17.23
2017-09-02T04:27:26.594Z,17.22
2017-09-02T04:27:52.702Z,17.26
2017-09-02T04:28:18.806Z,17.23
2017-09-02T04:28:44.914Z,17.14
2017-09-02T04:29:11.019Z,17.15
2017-09-02T04:29:37.140Z,17.2
2017-09-02T04:30:03.254Z,17.14
2017-09-02T04:30:29.364Z,17.22
2017-09-02T04:30:55.476Z,17.2
2017-09-02T04:31:21.586Z,17.24
2017-09-02T04:31:47.689Z,17.16
2017-09-02T04:32:13.795Z,17.16
2017-09-02T04:32:39.908Z,17.2
2017-09-02T04:33:06.012Z,17.15
2017-09-02T04:33:32.124Z,17.22
2017-09-02T04:33:58.236Z,17.15
2017-09-02T04:34:24.341Z,17.14
2017-09-02T04:34:50.454Z,17.19
2017-09-02T04:35:16.560Z,17.19
2017-09-02T04:35:42.666Z,17.12
2017-09-02T04:36:08.779Z,17.24
2017-09-02T04:36:34.884Z,17.11
2017-09-02T04:37:00.995Z,17.09
2017-09-02T04:37:27.101Z,17.11
2017-09-02T04:37:53.213Z,17.22
2017-09-02T04:38:19.321Z,17.11
2017-09-02T04:38:45.433Z,17.16
2017-09-02T04:39:11.543Z,17.12
2017-09-02T04:39:37.650Z,17.2
2017-09-02T04:40:03.764Z,17.16
2017-09-02T04:40:29.887Z,17.16
2017-09-02T04:40:55.990Z,17.24
2017-09-02T04:41:22.105Z,17.15
2017-09-02T04:41:48.209Z,17.11
2017-09-02T04:42:14.325Z,17.12
2017-09-02T04:42:40.429Z,17.14
2017-09-02T04:43:06.561Z,17.14
2017-09-02T04:43:32.661Z,17.14
2017-09-02T04:43:58.767Z,17.11
2017-09-02T04:44:24.875Z,17.16
2017-09-02T04:44:51.009Z,17.12
2017-09-02T04:45:17.142Z,17.15
2017-09-02T04:45:43.245Z,17.14
2017-09-02T04:46:09.353Z,17.14
2017-09-02T04:46:35.463Z,17.14
2017-09-02T04:47:01.576Z,17.06
2017-09-02T04:47:27.679Z,17.08
2017-09-02T04:47:53.819Z,17.09
2017-09-02T04:48:19.929Z,17.14
2017-09-02T04:48:46.034Z,17.09
2017-09-02T04:49:12.142Z,17.06
2017-09-02T04:49:38.244Z,17.14
2017-09-02T04:50:04.358Z,17.09
2017-09-02T04:50:30.470Z,17.15
2017-09-02T04:50:56.580Z,17.15
2017-09-02T04:51:22.692Z,17.14
2017-09-02T04:51:48.793Z,17.15
2017-09-02T04:52:14.907Z,17.14
2017-09-02T04:52:41.009Z,17.09
2017-09-02T04:53:07.121Z,17.08
2017-09-02T04:53:33.230Z,17.11
2017-09-02T04:53:59.335Z,17.09
2017-09-02T04:54:25.449Z,17.06
2017-09-02T04:54:51.576Z,17.11
2017-09-02T04:55:17.680Z,16.93
2017-09-02T04:55:43.786Z,17.01
2017-09-02T04:56:09.900Z,16.97
2017-09-02T04:56:36.009Z,16.97
2017-09-02T04:57:02.113Z,17.05
2017-09-02T04:57:28.247Z,16.97
2017-09-02T04:57:54.351Z,16.97
2017-09-02T04:58:20.464Z,16.99
2017-09-02T04:58:46.570Z,16.96
2017-09-02T04:59:12.683Z,17.11
2017-09-02T04:59:38.787Z,17.02
2017-09-02T05:00:04.899Z,16.94
2017-09-02T05:00:31.005Z,16.89
2017-09-02T05:00:57.108Z,16.93
2017-09-02T05:01:23.221Z,17.01
2017-09-02T05:01:49.325Z,16.97
2017-09-02T05:02:15.438Z,16.93
2017-09-02T05:02:41.549Z,16.94
2017-09-02T05:03:07.653Z,16.96
2017-09-02T05:03:33.766Z,16.96
2017-09-02T05:03:59.869Z,17.02
2017-09-02T05:04:25.976Z,16.97
2017-09-02T05:04:52.091Z,16.97
2017-09-02T05:05:18.202Z,17.05
2017-09-02T05:05:44.314Z,17.05
2017-09-02T05:06:10.422Z,16.94
2017-09-02T05:06:36.526Z,17.01
2017-09-02T05:07:02.636Z,16.87
2017-09-02T05:07:28.747Z,16.83
2017-09-02T05:07:54.855Z,16.79
2017-09-02T05:08:20.956Z,16.87
2017-09-02T05:08:47.066Z,16.9
2017-09-02T05:09:13.172Z,16.86
2017-09-02T05:09:39.283Z,16.93
2017-09-02T05:10:05.390Z,16.89
2017-09-02T05:10:31.501Z,16.87
2017-09-02T05:10:57.612Z,17.01
2017-09-02T05:11:23.725Z,17.02
2017-09-02T05:11:49.830Z,17.01
2017-09-02T05:12:15.941Z,16.93
2017-09-02T05:12:42.039Z,16.93
2017-09-02T05:13:08.150Z,16.87
2017-09-02T05:13:34.264Z,16.97
2017-09-02T05:14:00.368Z,16.87
2017-09-02T05:14:26.472Z,16.93
2017-09-02T05:14:52.588Z,16.93
2017-09-02T05:15:18.730Z,16.97
2017-09-02T05:15:44.839Z,16.87
2017-09-02T05:16:10.951Z,16.89
2017-09-02T05:16:37.061Z,16.94
2017-09-02T05:17:03.165Z,16.87
2017-09-02T05:17:29.277Z,16.93
2017-09-02T05:17:55.380Z,16.86
2017-09-02T05:18:21.486Z,16.99
2017-09-02T05:18:47.600Z,16.94
2017-09-02T05:19:13.711Z,16.97
2017-09-02T05:19:39.815Z,16.97
2017-09-02T05:20:05.920Z,17.04
2017-09-02T05:20:32.034Z,17.06
2017-09-02T05:20:58.140Z,17.01
2017-09-02T05:21:24.254Z,16.87
2017-09-02T05:21:50.358Z,16.91
2017-09-02T05:22:16.467Z,16.93
2017-09-02T05:22:42.577Z,16.99
2017-09-02T05:23:08.685Z,16.97
2017-09-02T05:23:34.793Z,17.01
2017-09-02T05:24:00.906Z,17.01
2017-09-02T05:24:27.012Z,16.99
2017-09-02T05:24:53.140Z,17.04
2017-09-02T05:25:19.250Z,17.05
2017-09-02T05:25:45.356Z,16.99
2017-09-02T05:26:11.467Z,17.06
2017-09-02T05:26:37.572Z,17.06
2017-09-02T05:27:03.675Z,16.93
2017-09-02T05:27:29.787Z,16.91
2017-09-02T05:27:55.896Z,16.93
2017-09-02T05:28:22.009Z,16.89
2017-09-02T05:28:48.132Z,16.94
2017-09-02T05:29:14.249Z,16.9
2017-09-02T05:29:40.359Z,16.9
2017-09-02T05:30:06.465Z,16.86
2017-09-02T05:30:32.578Z,16.87
2017-09-02T05:30:58.675Z,16.78
2017-09-02T05:31:24.783Z,16.93
2017-09-02T05:31:50.896Z,16.97
2017-09-02T05:32:17.002Z,17.06
2017-09-02T05:32:43.110Z,16.87
2017-09-02T05:33:09.224Z,16.89
2017-09-02T05:33:35.330Z,16.89
2017-09-02T05:34:01.440Z,16.84
2017-09-02T05:34:27.552Z,16.96
2017-09-02T05:34:53.654Z,16.97
2017-09-02T05:35:19.760Z,17.01
2017-09-02T05:35:45.868Z,17.09
2017-09-02T05:36:11.973Z,17.01
2017-09-02T05:36:38.084Z,17.08
2017-09-02T05:37:04.215Z,17.06